createdAt,value
2017-09-30T00:00:15.695Z,99323.61
2017-09-30T00:05:45.919Z,99321.14
2017-09-30T00:08:24.998Z,99320.48
2017-09-30T00:11:08.355Z,99320.76
2017-09-30T00:13:48.881Z,99308.19
2017-09-30T00:16:24.931Z,99316.70
2017-09-30T00:19:03.380Z,99312.53
2017-09-30T00:21:40.101Z,99313.86
2017-09-30T00:24:17.732Z,99320.30
2017-09-30T00:26:53.367Z,99315.02
2017-09-30T00:29:35.689Z,99310.77
2017-09-30T00:32:12.285Z,99306.13
2017-09-30T00:34:51.480Z,99307.81
2017-09-30T00:37:26.551Z,99308.58
2017-09-30T00:40:04.945Z,99304.64
2017-09-30T00:42:40.438Z,99296.14
2017-09-30T00:45:22.047Z,99294.41
2017-09-30T00:48:05.590Z,99293.14
2017-09-30T00:50:46.419Z,99288.28
2017-09-30T00:53:26.222Z,99292.56
2017-09-30T00:56:04.413Z,99287.41
2017-09-30T00:58:59.869Z,99283.97
2017-09-30T01:01:49.907Z,99284.01
2017-09-30T01:10:24.828Z,99273.72
2017-09-30T01:13:08.509Z,99276.22
2017-09-30T01:15:56.654Z,99263.02
2017-09-30T01:18:38.864Z,99266.67
2017-09-30T01:21:11.989Z,99270.11
2017-09-30T01:23:52.918Z,99274.97
2017-09-30T01:26:36.671Z,99276.46
2017-09-30T01:29:35.275Z,99269.71
2017-09-30T01:32:08.122Z,99265.09
2017-09-30T01:34:53.885Z,99258.38
2017-09-30T01:37:35.161Z,99258.68
2017-09-30T01:40:12.253Z,99257.69
2017-09-30T01:42:52.701Z,99250.77
2017-09-30T01:45:45.401Z,99251.50
2017-09-30T01:48:27.501Z,99251.50
2017-09-30T01:51:19.230Z,99249.56
2017-09-30T01:53:57.595Z,99244.19
2017-09-30T01:56:41.981Z,99242.66
2017-09-30T01:59:21.547Z,99245.53
2017-09-30T02:02:08.840Z,99233.72
2017-09-30T02:04:48.574Z,99240.95
2017-09-30T02:07:40.474Z,99231.75
2017-09-30T02:10:42.643Z,99222.98
2017-09-30T02:13:32.483Z,99221.69
2017-09-30T02:16:09.336Z,99223.87
2017-09-30T02:18:43.825Z,99225.63
2017-09-30T02:21:24.917Z,99225.06
2017-09-30T02:24:02.454Z,99223.80
2017-09-30T02:26:39.834Z,99223.26
2017-09-30T02:29:19.510Z,99221.11
2017-09-30T02:32:06.308Z,99224.02
2017-09-30T02:34:53.800Z,99216.97
2017-09-30T02:37:26.891Z,99217.09
2017-09-30T02:40:20.807Z,99213.31
2017-09-30T02:42:59.128Z,99215.58
2017-09-30T02:45:47.632Z,99214.55
2017-09-30T02:48:26.200Z,99208.73
2017-09-30T02:51:07.909Z,99205.53
2017-09-30T02:53:52.787Z,99205.41
2017-09-30T02:56:32.597Z,99199.45
2017-09-30T02:59:11.542Z,99205.48
2017-09-30T03:01:56.613Z,99201.63
2017-09-30T03:04:38.135Z,99200.98
2017-09-30T03:07:09.654Z,99194.33
2017-09-30T03:09:45.392Z,99193.68
2017-09-30T03:12:26.166Z,99188.94
2017-09-30T03:14:58.865Z,99184.39
2017-09-30T03:17:38.677Z,99180.19
2017-09-30T03:20:30.232Z,99176.70
2017-09-30T03:23:04.459Z,99177.95
2017-09-30T03:25:41.533Z,99180.56
2017-09-30T03:28:16.917Z,99184.00
2017-09-30T03:30:54.657Z,99180.95
2017-09-30T03:33:46.575Z,99178.43
2017-09-30T03:36:21.094Z,99179.87
2017-09-30T03:39:01.814Z,99177.55
2017-09-30T03:41:41.651Z,99172.28
2017-09-30T03:50:04.359Z,99173.71
2017-09-30T03:52:47.529Z,99176.23
2017-09-30T04:03:53.725Z,99167.64
2017-09-30T04:06:41.755Z,99152.56
2017-09-30T04:09:24.326Z,99142.76
2017-09-30T04:11:59.158Z,99154.97
2017-09-30T04:14:36.649Z,99158.77
2017-09-30T04:20:09.331Z,99154.20
2017-09-30T04:22:47.867Z,99155.61
2017-09-30T04:25:23.027Z,99143.38
2017-09-30T04:28:01.598Z,99144.22
2017-09-30T04:30:42.374Z,99146.33
2017-09-30T04:33:26.018Z,99142.12
2017-09-30T04:36:08.823Z,99146.76
2017-09-30T04:38:50.172Z,99142.32
2017-09-30T04:41:28.586Z,99143.16
2017-09-30T04:44:16.294Z,99140.62
2017-09-30T04:46:57.773Z,99137.54
2017-09-30T04:49:44.779Z,99137.76
2017-09-30T04:52:19.203Z,99140.91
2017-09-30T04:54:54.526Z,99134.95
2017-09-30T04:57:27.566Z,99130.88
2017-09-30T05:00:03.463Z,99127.20
2017-09-30T05:02:59.405Z,99125.64
2017-09-30T05:05:30.481Z,99128.05
2017-09-30T05:08:17.631Z,99129.39
2017-09-30T05:10:50.927Z,99139.25
2017-09-30T05:13:32.167Z,99150.66
2017-09-30T05:16:06.880Z,99143.22
2017-09-30T05:18:50.540Z,99133.06
2017-09-30T05:21:36.589Z,99130.41
2017-09-30T05:24:24.470Z,99131.30
2017-09-30T05:27:03.083Z,99133.72
2017-09-30T05:29:34.440Z,99133.47
2017-09-30T05:32:08.476Z,99133.92
2017-09-30T05:34:40.298Z,99132.50
2017-09-30T05:39:57.441Z,99142.66
2017-09-30T05:42:32.429Z,99139.90
2017-09-30T05:45:05.895Z,99137.42
2017-09-30T05:47:38.845Z,99148.06
2017-09-30T05:50:11.537Z,99148.19
2017-09-30T05:52:43.546Z,99143.36
2017-09-30T05:55:16.269Z,99144.12
2017-09-30T05:57:47.264Z,99150.00
2017-09-30T06:00:20.668Z,99149.42
2017-09-30T06:02:55.693Z,99155.41
2017-09-30T06:05:28.972Z,99154.27
2017-09-30T06:08:17.580Z,99157.52
2017-09-30T06:10:52.870Z,99157.88
2017-09-30T06:13:26.225Z,99155.53
2017-09-30T06:16:02.164Z,99156.03
2017-09-30T06:18:43.624Z,99154.42
2017-09-30T06:21:24.448Z,99164.70
2017-09-30T06:23:59.027Z,99161.94
2017-09-30T06:26:31.842Z,99158.42
2017-09-30T06:29:08.362Z,99159.21
2017-09-30T06:31:41.764Z,99163.77
2017-09-30T06:34:32.509Z,99158.34
2017-09-30T06:37:07.337Z,99154.05
2017-09-30T06:39:46.994Z,99150.41
2017-09-30T06:42:21.769Z,99149.39
2017-09-30T06:45:00.812Z,99150.14
2017-09-30T06:47:42.247Z,99143.97
2017-09-30T06:50:20.699Z,99146.77
2017-09-30T06:53:02.292Z,99138.01
2017-09-30T06:55:39.856Z,99135.91
2017-09-30T06:58:17.354Z,99135.71
2017-09-30T07:00:48.576Z,99135.39
2017-09-30T07:03:37.035Z,99135.49
2017-09-30T07:06:11.982Z,99136.09
2017-09-30T07:08:48.642Z,99141.27
2017-09-30T07:11:30.583Z,99137.34
2017-09-30T07:14:02.742Z,99141.09
2017-09-30T07:16:36.533Z,99138.59
2017-09-30T07:19:07.368Z,99134.00
2017-09-30T07:21:38.684Z,99139.17
2017-09-30T07:24:14.643Z,99135.98
2017-09-30T07:26:48.276Z,99134.97
2017-09-30T07:29:21.520Z,99132.52
2017-09-30T07:31:54.341Z,99134.48
2017-09-30T07:34:31.739Z,99130.33
2017-09-30T07:37:07.728Z,99130.63
2017-09-30T07:39:41.986Z,99130.81
2017-09-30T07:42:17.165Z,99135.28
2017-09-30T07:44:51.108Z,99130.89
2017-09-30T07:47:24.108Z,99130.66
2017-09-30T07:49:57.123Z,99125.63
2017-09-30T07:52:28.371Z,99126.31
2017-09-30T07:55:03.979Z,99134.28
2017-09-30T07:57:39.454Z,99129.50
2017-09-30T08:00:23.819Z,99124.50
2017-09-30T08:03:01.305Z,99119.19
2017-09-30T08:05:36.998Z,99122.16
2017-09-30T08:08:09.219Z,99131.39
2017-09-30T08:10:45.401Z,99122.68
2017-09-30T08:13:18.376Z,99123.52
2017-09-30T08:15:51.462Z,99122.42
2017-09-30T08:18:27.559Z,99118.45
2017-09-30T08:20:59.467Z,99116.09
2017-09-30T08:23:34.761Z,99124.47
2017-09-30T08:26:13.344Z,99121.13
2017-09-30T08:28:44.588Z,99122.46
2017-09-30T08:31:16.515Z,99121.38
2017-09-30T08:33:51.230Z,99125.09
2017-09-30T08:36:23.538Z,99124.34
2017-09-30T08:38:56.693Z,99120.20
2017-09-30T08:41:29.031Z,99120.84
2017-09-30T08:44:02.726Z,99124.17
2017-09-30T08:46:36.365Z,99121.17
2017-09-30T08:49:10.892Z,99126.74
2017-09-30T08:51:46.138Z,99128.53
2017-09-30T08:54:17.139Z,99120.58
2017-09-30T08:56:50.709Z,99119.64
2017-09-30T08:59:23.663Z,99116.94
2017-09-30T09:01:59.541Z,99116.59
2017-09-30T09:04:32.111Z,99108.67
2017-09-30T09:07:03.191Z,99104.64
2017-09-30T09:09:35.787Z,99112.96
2017-09-30T09:12:05.813Z,99107.08
2017-09-30T09:14:41.298Z,99096.19
2017-09-30T09:17:13.643Z,99097.94
2017-09-30T09:19:47.546Z,99096.65
2017-09-30T09:22:21.452Z,99092.87
2017-09-30T09:24:54.422Z,99085.75
2017-09-30T09:27:25.438Z,99086.84
2017-09-30T09:29:58.336Z,99077.84
2017-09-30T09:32:29.748Z,99077.78
2017-09-30T09:35:00.822Z,99070.81
2017-09-30T09:37:31.698Z,99064.66
2017-09-30T09:40:02.951Z,99058.63
2017-09-30T09:42:35.626Z,99051.25
2017-09-30T09:47:55.374Z,99051.19
2017-09-30T09:50:26.442Z,99040.17
2017-09-30T09:52:59.132Z,99039.36
2017-09-30T09:55:29.989Z,99041.73
2017-09-30T09:58:00.721Z,99034.78
2017-09-30T10:00:32.283Z,99037.70
2017-09-30T10:03:02.873Z,99033.94
2017-09-30T10:05:34.267Z,99028.97
2017-09-30T10:08:05.156Z,99031.19
2017-09-30T10:10:35.723Z,99030.61
2017-09-30T10:13:07.269Z,99020.41
2017-09-30T10:15:38.533Z,99009.83
2017-09-30T10:18:11.645Z,99003.84
2017-09-30T10:20:42.604Z,98999.94
2017-09-30T10:23:13.730Z,98994.52
2017-09-30T10:25:45.028Z,98986.42
2017-09-30T10:28:20.668Z,98978.71
2017-09-30T10:30:51.826Z,98975.37
2017-09-30T10:33:23.360Z,98976.16
2017-09-30T10:35:54.295Z,98973.34
2017-09-30T10:38:24.996Z,98967.62
2017-09-30T10:41:02.099Z,98959.48
2017-09-30T10:43:41.218Z,98969.96
2017-09-30T10:46:13.600Z,98964.24
2017-09-30T10:48:45.029Z,98960.56
2017-09-30T10:51:15.736Z,98959.67
2017-09-30T10:53:47.003Z,98958.17
2017-09-30T10:56:20.123Z,98956.78
2017-09-30T10:58:51.669Z,98952.89
2017-09-30T11:01:23.578Z,98949.11
2017-09-30T11:03:55.006Z,98940.66
2017-09-30T11:06:27.478Z,98936.11
2017-09-30T11:09:02.298Z,98935.87
2017-09-30T11:11:34.996Z,98929.20
2017-09-30T11:14:06.221Z,98931.34
2017-09-30T11:16:38.615Z,98932.77
2017-09-30T11:19:09.852Z,98931.66
2017-09-30T11:21:40.961Z,98924.78
2017-09-30T11:24:12.946Z,98929.92
2017-09-30T11:26:53.108Z,98929.16
2017-09-30T11:29:27.775Z,98926.67
2017-09-30T11:32:06.495Z,98921.34
2017-09-30T11:34:46.870Z,98919.84
2017-09-30T11:37:28.252Z,98921.29
2017-09-30T11:40:15.895Z,98922.03
2017-09-30T11:42:54.211Z,98911.95
2017-09-30T11:45:26.795Z,98910.03
2017-09-30T11:48:02.986Z,98910.77
2017-09-30T11:50:37.008Z,98903.86
2017-09-30T11:53:15.082Z,98902.84
2017-09-30T11:55:53.260Z,98896.20
2017-09-30T11:58:25.234Z,98901.92
2017-09-30T12:00:58.092Z,98897.13
2017-09-30T12:03:31.526Z,98894.73
2017-09-30T12:06:06.897Z,98889.86
2017-09-30T12:08:43.050Z,98884.81
2017-09-30T12:11:18.151Z,98884.70
2017-09-30T12:13:49.824Z,98884.61
2017-09-30T12:16:22.372Z,98883.42
2017-09-30T12:18:53.806Z,98879.90
2017-09-30T12:21:24.668Z,98877.81
2017-09-30T12:23:55.766Z,98884.88
2017-09-30T12:26:26.852Z,98875.84
2017-09-30T12:29:06.762Z,98882.03
2017-09-30T12:31:40.454Z,98884.71
2017-09-30T12:34:17.054Z,98887.81
2017-09-30T12:36:52.370Z,98881.54
2017-09-30T12:39:30.966Z,98879.11
2017-09-30T12:42:02.923Z,98878.66
2017-09-30T12:44:35.054Z,98876.06
2017-09-30T12:47:19.338Z,98878.08
2017-09-30T12:52:41.229Z,98877.06
2017-09-30T12:55:16.110Z,98871.98
2017-09-30T12:57:49.077Z,98867.29
2017-09-30T13:00:19.923Z,98870.73
2017-09-30T13:02:51.181Z,98861.07
2017-09-30T13:05:21.962Z,98864.30
2017-09-30T13:07:53.631Z,98863.55
2017-09-30T13:10:24.793Z,98863.05
2017-09-30T13:12:56.849Z,98854.03
2017-09-30T13:15:29.216Z,98853.90
2017-09-30T13:18:02.057Z,98861.14
2017-09-30T13:20:35.154Z,98849.11
2017-09-30T13:23:06.905Z,98849.13
2017-09-30T13:25:42.444Z,98852.95
2017-09-30T13:28:16.638Z,98850.86
2017-09-30T13:30:55.546Z,98841.39
2017-09-30T13:36:12.505Z,98848.34
2017-09-30T13:38:50.961Z,98842.58
2017-09-30T13:41:27.472Z,98838.48
2017-09-30T13:44:02.748Z,98839.35
2017-09-30T13:46:42.793Z,98834.87
2017-09-30T13:49:19.832Z,98837.62
2017-09-30T13:52:13.599Z,98834.16
2017-09-30T13:54:46.460Z,98834.36
2017-09-30T13:57:19.856Z,98830.41
2017-09-30T13:59:56.337Z,98830.10
2017-09-30T14:02:29.858Z,98831.02
2017-09-30T14:05:01.295Z,98830.41
2017-09-30T14:07:37.544Z,98828.98
2017-09-30T14:10:10.960Z,98835.72
2017-09-30T14:12:42.032Z,98832.73
2017-09-30T14:15:21.321Z,98826.47
2017-09-30T14:17:59.498Z,98822.88
2017-09-30T14:20:34.514Z,98821.45
2017-09-30T14:23:10.313Z,98825.13
2017-09-30T14:25:43.648Z,98820.06
2017-09-30T14:28:16.148Z,98820.17
2017-09-30T14:34:04.598Z,98828.00
2017-09-30T14:36:37.251Z,98822.66
2017-09-30T14:39:10.742Z,98823.59
2017-09-30T14:41:45.917Z,98819.22
2017-09-30T14:44:23.924Z,98822.20
2017-09-30T14:46:55.853Z,98824.48
2017-09-30T14:49:28.886Z,98820.12
2017-09-30T14:52:01.796Z,98828.44
2017-09-30T14:54:33.324Z,98820.41
2017-09-30T14:57:05.675Z,98810.59
2017-09-30T14:59:39.119Z,98814.27
2017-09-30T15:02:16.154Z,98807.26
2017-09-30T15:04:47.586Z,98808.92
2017-09-30T15:07:18.755Z,98803.72
2017-09-30T15:09:57.000Z,98809.55
2017-09-30T15:12:39.508Z,98804.66
2017-09-30T15:15:16.632Z,98796.48
2017-09-30T15:17:48.759Z,98799.84
2017-09-30T15:20:19.972Z,98800.19
2017-09-30T15:22:50.890Z,98797.44
2017-09-30T15:25:22.438Z,98794.36
2017-09-30T15:27:53.652Z,98795.56
2017-09-30T15:30:24.767Z,98789.32
2017-09-30T15:33:00.486Z,98784.05
2017-09-30T15:35:33.245Z,98782.81
2017-09-30T15:38:05.385Z,98775.59
2017-09-30T15:40:37.592Z,98772.61
2017-09-30T15:43:09.975Z,98772.43
2017-09-30T15:45:41.094Z,98765.77
2017-09-30T15:48:12.874Z,98766.63
2017-09-30T15:50:48.945Z,98769.27
2017-09-30T15:53:22.258Z,98762.98
2017-09-30T15:55:56.207Z,98763.05
2017-09-30T15:58:28.132Z,98765.84
2017-09-30T16:01:05.036Z,98763.20
2017-09-30T16:03:39.967Z,98766.52
2017-09-30T16:06:16.258Z,98763.36
2017-09-30T16:08:50.146Z,98762.75
2017-09-30T16:11:24.884Z,98759.52
2017-09-30T16:13:56.422Z,98759.33
2017-09-30T16:16:28.539Z,98761.23
2017-09-30T16:18:59.622Z,98762.41
2017-09-30T16:21:31.624Z,98766.53
2017-09-30T16:24:04.875Z,98757.95
2017-09-30T16:26:41.000Z,98759.50
2017-09-30T16:29:14.709Z,98754.68
2017-09-30T16:31:46.857Z,98759.41
2017-09-30T16:34:19.831Z,98762.81
2017-09-30T16:36:52.894Z,98754.72
2017-09-30T16:39:30.875Z,98756.85
2017-09-30T16:42:11.368Z,98764.23
2017-09-30T16:44:46.052Z,98769.55
2017-09-30T16:47:17.794Z,98770.47
2017-09-30T16:52:24.211Z,98769.13
2017-09-30T16:54:56.208Z,98771.52
2017-09-30T16:57:27.179Z,98773.58
2017-09-30T17:00:02.494Z,98767.09
2017-09-30T17:02:38.519Z,98769.05
2017-09-30T17:05:14.844Z,98767.87
2017-09-30T17:07:46.816Z,98766.27
2017-09-30T17:10:18.171Z,98768.03
2017-09-30T17:12:49.055Z,98773.06
2017-09-30T17:15:20.012Z,98782.91
2017-09-30T17:17:50.922Z,98786.35
2017-09-30T17:20:23.099Z,98787.98
2017-09-30T17:22:55.079Z,98790.52
2017-09-30T17:25:27.200Z,98792.73
2017-09-30T17:28:00.549Z,98787.05
2017-09-30T17:30:32.392Z,98792.77
2017-09-30T17:33:04.123Z,98801.20
2017-09-30T17:35:35.100Z,98803.41
2017-09-30T17:38:07.339Z,98798.08
2017-09-30T17:40:38.699Z,98805.23
2017-09-30T17:43:10.536Z,98802.54
2017-09-30T17:45:43.703Z,98802.76
2017-09-30T17:48:19.677Z,98810.10
2017-09-30T17:50:51.595Z,98817.27
2017-09-30T17:53:22.340Z,98814.50
2017-09-30T17:55:55.494Z,98813.41
2017-09-30T17:58:28.403Z,98811.81
2017-09-30T18:01:00.169Z,98813.16
2017-09-30T18:03:32.365Z,98810.37
2017-09-30T18:06:05.509Z,98810.75
2017-09-30T18:08:40.270Z,98813.23
2017-09-30T18:11:15.782Z,98819.14
2017-09-30T18:13:49.269Z,98813.81
2017-09-30T18:16:23.988Z,98819.56
2017-09-30T18:18:56.134Z,98816.95
2017-09-30T18:21:31.670Z,98820.84
2017-09-30T18:24:03.921Z,98817.88
2017-09-30T18:26:37.115Z,98816.23
2017-09-30T18:29:15.888Z,98821.05
2017-09-30T18:32:06.052Z,98817.15
2017-09-30T18:37:37.701Z,98811.19
2017-09-30T18:40:18.695Z,98815.91
2017-09-30T18:42:58.848Z,98813.82
2017-09-30T18:45:31.896Z,98822.53
2017-09-30T18:48:09.088Z,98827.44
2017-09-30T18:50:41.179Z,98825.97
2017-09-30T18:53:14.804Z,98834.98
2017-09-30T18:55:48.180Z,98836.42
2017-09-30T18:58:21.442Z,98838.17
2017-09-30T19:00:54.461Z,98837.94
2017-09-30T19:03:27.054Z,98837.75
2017-09-30T19:05:57.919Z,98837.96
2017-09-30T19:08:29.577Z,98862.71
2017-09-30T19:11:02.854Z,98868.10
2017-09-30T19:13:37.613Z,98867.05
2017-09-30T19:16:12.528Z,98876.09
2017-09-30T19:18:45.423Z,98892.16
2017-09-30T19:21:17.891Z,98891.60
2017-09-30T19:23:53.603Z,98893.23
2017-09-30T19:26:29.459Z,98912.41
2017-09-30T19:29:03.016Z,98913.32
2017-09-30T19:31:40.497Z,98916.50
2017-09-30T19:34:15.826Z,98924.76
2017-09-30T19:36:49.678Z,98920.08
2017-09-30T19:39:22.211Z,98926.94
2017-09-30T19:41:54.395Z,98932.08
2017-09-30T19:44:28.247Z,98931.55
2017-09-30T19:47:05.598Z,98932.77
2017-09-30T19:49:37.039Z,98942.02
2017-09-30T19:52:08.744Z,98948.41
2017-09-30T19:54:40.065Z,98953.23
2017-09-30T19:57:10.700Z,98959.36
2017-09-30T19:59:41.721Z,98965.69
2017-09-30T20:02:14.855Z,98964.38
2017-09-30T20:04:45.502Z,98969.39
2017-09-30T20:07:16.141Z,98967.03
2017-09-30T20:09:46.902Z,98975.86
2017-09-30T20:12:17.885Z,98980.58
2017-09-30T20:14:51.452Z,98986.33
2017-09-30T20:17:23.482Z,98982.34
2017-09-30T20:19:58.459Z,98990.91
2017-09-30T20:22:29.824Z,98991.99
2017-09-30T20:25:01.437Z,98989.56
2017-09-30T20:27:33.464Z,98986.27
2017-09-30T20:30:06.428Z,98989.33
2017-09-30T20:32:41.828Z,98992.91
2017-09-30T20:35:21.376Z,98992.70
2017-09-30T20:38:00.268Z,98992.20
2017-09-30T20:40:36.203Z,98998.99
2017-09-30T20:43:09.140Z,99002.06
2017-09-30T20:45:43.866Z,99013.22
2017-09-30T20:48:16.706Z,99022.37
2017-09-30T20:50:48.764Z,99024.30
2017-09-30T20:53:20.481Z,99024.84
2017-09-30T20:55:56.512Z,99030.64
2017-09-30T20:58:29.796Z,99020.61
2017-09-30T21:01:02.644Z,99022.55
2017-09-30T21:03:34.320Z,99021.02
2017-09-30T21:06:06.330Z,99016.86
2017-09-30T21:08:39.506Z,99023.70
2017-09-30T21:11:11.248Z,99023.95
2017-09-30T21:13:42.744Z,99017.53
2017-09-30T21:16:14.648Z,99022.80
2017-09-30T21:18:46.325Z,99030.17
2017-09-30T21:21:18.689Z,99039.23
2017-09-30T21:23:52.007Z,99039.02
2017-09-30T21:26:26.391Z,99043.67
2017-09-30T21:28:58.994Z,99041.02
2017-09-30T21:31:30.533Z,99052.44
2017-09-30T21:34:05.640Z,99049.70
2017-09-30T21:36:36.804Z,99055.39
2017-09-30T21:39:16.113Z,99057.20
2017-09-30T21:41:51.507Z,99061.55
2017-09-30T21:44:23.649Z,99058.97
2017-09-30T21:46:54.937Z,99066.77
2017-09-30T21:49:29.995Z,99066.86
2017-09-30T21:52:03.662Z,99067.42
2017-09-30T21:54:35.122Z,99070.42
2017-09-30T21:57:09.835Z,99072.02
2017-09-30T21:59:42.034Z,99068.09
2017-09-30T22:02:17.827Z,99066.45
2017-09-30T22:04:54.815Z,99074.86
2017-09-30T22:07:34.607Z,99069.56
2017-09-30T22:10:07.944Z,99074.52
2017-09-30T22:12:39.998Z,99076.09
2017-09-30T22:15:11.831Z,99078.50
2017-09-30T22:17:42.583Z,99081.75
2017-09-30T22:20:13.480Z,99084.31
2017-09-30T22:22:45.590Z,99086.75
2017-09-30T22:25:16.664Z,99090.99
2017-09-30T22:27:49.223Z,99087.94
2017-09-30T22:30:20.435Z,99087.86
2017-09-30T22:32:51.185Z,99085.80
2017-09-30T22:35:23.559Z,99089.08
2017-09-30T22:37:55.106Z,99093.17
2017-09-30T22:40:26.318Z,99095.54
2017-09-30T22:42:57.557Z,99092.98
2017-09-30T22:45:29.293Z,99094.39
2017-09-30T22:50:37.081Z,99095.20
2017-09-30T22:53:08.639Z,99089.43
2017-09-30T22:55:39.975Z,99098.73
2017-09-30T22:58:11.612Z,99100.12
2017-09-30T23:00:43.404Z,99099.38
2017-09-30T23:03:17.137Z,99091.98
2017-09-30T23:05:52.590Z,99099.01
2017-09-30T23:08:25.730Z,99100.00
2017-09-30T23:10:58.912Z,99098.96
2017-09-30T23:13:34.053Z,99104.48
2017-09-30T23:16:10.730Z,99099.75
2017-09-30T23:18:42.440Z,99097.83
2017-09-30T23:21:13.438Z,99103.44
2017-09-30T23:23:52.728Z,99106.56
2017-09-30T23:26:26.592Z,99102.81
2017-09-30T23:28:59.591Z,99109.20
2017-09-30T23:31:30.744Z,99117.34
2017-09-30T23:34:02.587Z,99122.00
2017-09-30T23:36:34.101Z,99121.23
2017-09-30T23:39:05.384Z,99118.72
2017-09-30T23:41:36.721Z,99120.36
2017-09-30T23:44:09.931Z,99120.20
2017-09-30T23:46:40.969Z,99117.78
2017-09-30T23:49:11.862Z,99117.61
2017-09-30T23:51:42.916Z,99116.16
2017-09-30T23:54:14.581Z,99114.80
2017-09-30T23:56:45.470Z,99115.78
2017-09-30T23:59:16.670Z,99115.24
